BTN700 VQPR-VECC
Flight info
| Callsign | BTN700 |
|---|---|
| Flight time | 0h 53m |
| Altitude | 34000 |
| Route | PRO R598 BOGOP R598 RAJ R472 AGODA |
| Aircraft | A319/M-SDE3FGHIRWY/LB1 |
Departure
| Time | 2026-04-23 16:45 |
|---|---|
| Airport | Paro International Airport (VQPR) |
Arrival
| Time | 2026-04-23 17:38 |
|---|---|
| Airport | Netaji Subhash Chandra Bose International Airport (VECC) |
| Time | Latitude | Longitude | Altitude | Speed | Heading |
|---|---|---|---|---|---|
| 2026-04-23 16:17 | 27.40535 | 89.42162 | 7297 ft | 0 kts | 240° |
| 2026-04-23 16:36 | 27.40536 | 89.42165 | 7298 ft | 2 kts | 240° |
| 2026-04-23 16:36 | 27.40547 | 89.42185 | 7297 ft | 4 kts | 243° |
| 2026-04-23 16:36 | 27.40552 | 89.42213 | 7296 ft | 4 kts | 295° |
| 2026-04-23 16:36 | 27.40538 | 89.42231 | 7295 ft | 1 kts | 330° |
| 2026-04-23 16:40 | 27.40539 | 89.42231 | 7296 ft | 1 kts | 330° |
| 2026-04-23 16:40 | 27.40565 | 89.42214 | 7300 ft | 5 kts | 330° |
| 2026-04-23 16:40 | 27.40589 | 89.42198 | 7300 ft | 3 kts | 330° |
| 2026-04-23 16:41 | 27.40609 | 89.42186 | 7300 ft | 7 kts | 330° |
| 2026-04-23 16:41 | 27.40669 | 89.42147 | 7302 ft | 10 kts | 330° |
| 2026-04-23 16:41 | 27.40724 | 89.42112 | 7305 ft | 8 kts | 330° |
| 2026-04-23 16:41 | 27.40766 | 89.42086 | 7305 ft | 6 kts | 331° |
| 2026-04-23 16:42 | 27.40796 | 89.42068 | 7303 ft | 4 kts | 340° |
| 2026-04-23 16:42 | 27.40825 | 89.42089 | 7306 ft | 7 kts | 60° |
| 2026-04-23 16:42 | 27.40865 | 89.42122 | 7305 ft | 8 kts | 355° |
| 2026-04-23 16:42 | 27.40922 | 89.42090 | 7306 ft | 10 kts | 331° |
| 2026-04-23 16:43 | 27.40987 | 89.42050 | 7307 ft | 11 kts | 331° |
| 2026-04-23 16:43 | 27.41056 | 89.42005 | 7311 ft | 11 kts | 329° |
| 2026-04-23 16:43 | 27.41119 | 89.41964 | 7308 ft | 11 kts | 329° |
| 2026-04-23 16:43 | 27.41176 | 89.41909 | 7312 ft | 10 kts | 311° |
| 2026-04-23 16:44 | 27.41201 | 89.41911 | 7314 ft | 4 kts | 122° |
| 2026-04-23 16:44 | 27.41172 | 89.41931 | 7313 ft | 7 kts | 150° |
| 2026-04-23 16:44 | 27.41041 | 89.42015 | 7310 ft | 54 kts | 150° |
| 2026-04-23 16:44 | 27.40497 | 89.42361 | 7296 ft | 123 kts | 150° |
| 2026-04-23 16:45 | 27.39570 | 89.42950 | 7303 ft | 176 kts | 150° |
| 2026-04-23 16:45 | 27.38569 | 89.43682 | 7992 ft | 170 kts | 137° |
| 2026-04-23 16:45 | 27.37847 | 89.44737 | 8656 ft | 171 kts | 124° |
| 2026-04-23 16:45 | 27.36989 | 89.45665 | 9340 ft | 172 kts | 146° |
| 2026-04-23 16:46 | 27.35979 | 89.46361 | 10141 ft | 168 kts | 148° |
| 2026-04-23 16:46 | 27.34991 | 89.47063 | 10654 ft | 168 kts | 148° |
| 2026-04-23 16:46 | 27.34002 | 89.47786 | 11161 ft | 170 kts | 148° |
| 2026-04-23 16:46 | 27.33012 | 89.48517 | 11728 ft | 171 kts | 148° |
| 2026-04-23 16:47 | 27.32333 | 89.49001 | 12043 ft | 172 kts | 150° |
| 2026-04-23 16:47 | 27.31293 | 89.49690 | 12462 ft | 174 kts | 152° |
| 2026-04-23 16:47 | 27.30251 | 89.50376 | 12797 ft | 180 kts | 152° |
| 2026-04-23 16:47 | 27.28627 | 89.51149 | 13204 ft | 200 kts | 162° |
| 2026-04-23 16:48 | 27.27733 | 89.51518 | 13311 ft | 213 kts | 161° |
| 2026-04-23 16:48 | 27.26277 | 89.52133 | 13470 ft | 233 kts | 162° |
| 2026-04-23 16:48 | 27.24686 | 89.52797 | 13609 ft | 257 kts | 162° |
| 2026-04-23 16:48 | 27.22956 | 89.53529 | 14047 ft | 269 kts | 161° |
| 2026-04-23 16:49 | 27.21161 | 89.54299 | 14419 ft | 286 kts | 161° |
| 2026-04-23 16:49 | 27.19219 | 89.55128 | 14623 ft | 310 kts | 161° |
| 2026-04-23 16:49 | 27.17124 | 89.56021 | 14749 ft | 333 kts | 161° |
| 2026-04-23 16:49 | 27.14894 | 89.56974 | 14865 ft | 355 kts | 161° |
| 2026-04-23 16:50 | 27.12514 | 89.57997 | 15046 ft | 373 kts | 161° |
| 2026-04-23 16:50 | 27.10056 | 89.59054 | 15490 ft | 381 kts | 161° |
| 2026-04-23 16:50 | 27.07569 | 89.60125 | 16021 ft | 384 kts | 161° |
| 2026-04-23 16:50 | 27.05061 | 89.61202 | 16589 ft | 387 kts | 161° |
| 2026-04-23 16:51 | 27.02542 | 89.62282 | 17165 ft | 390 kts | 161° |
| 2026-04-23 16:51 | 26.99984 | 89.63379 | 17747 ft | 394 kts | 161° |
| 2026-04-23 16:51 | 26.97416 | 89.64474 | 18339 ft | 397 kts | 161° |
| 2026-04-23 16:51 | 26.94823 | 89.65575 | 18860 ft | 400 kts | 161° |
| 2026-04-23 16:52 | 26.92216 | 89.66683 | 19392 ft | 402 kts | 160° |
| 2026-04-23 16:52 | 26.89594 | 89.67800 | 19908 ft | 405 kts | 160° |
| 2026-04-23 16:52 | 26.86956 | 89.68923 | 20428 ft | 407 kts | 160° |
| 2026-04-23 16:52 | 26.84295 | 89.70055 | 20936 ft | 410 kts | 160° |
| 2026-04-23 16:53 | 26.81615 | 89.71198 | 21467 ft | 413 kts | 160° |
| 2026-04-23 16:53 | 26.78917 | 89.72309 | 21968 ft | 415 kts | 163° |
| 2026-04-23 16:53 | 26.76083 | 89.72937 | 22463 ft | 417 kts | 175° |
| 2026-04-23 16:53 | 26.73173 | 89.72892 | 22945 ft | 420 kts | 187° |
| 2026-04-23 16:54 | 26.70321 | 89.72169 | 23402 ft | 423 kts | 199° |
| 2026-04-23 16:54 | 26.67635 | 89.70788 | 23785 ft | 427 kts | 210° |
| 2026-04-23 16:54 | 26.65097 | 89.69043 | 24171 ft | 430 kts | 211° |
| 2026-04-23 16:54 | 26.62545 | 89.67290 | 24539 ft | 433 kts | 211° |
| 2026-04-23 16:55 | 26.59959 | 89.65518 | 24919 ft | 436 kts | 211° |
| 2026-04-23 16:55 | 26.57371 | 89.63749 | 25303 ft | 439 kts | 211° |
| 2026-04-23 16:55 | 26.54784 | 89.61987 | 25689 ft | 441 kts | 211° |
| 2026-04-23 16:55 | 26.52154 | 89.60201 | 26070 ft | 444 kts | 211° |
| 2026-04-23 16:56 | 26.49505 | 89.58398 | 26444 ft | 447 kts | 211° |
| 2026-04-23 16:56 | 26.46838 | 89.56581 | 26808 ft | 450 kts | 211° |
| 2026-04-23 16:56 | 26.44161 | 89.54756 | 27177 ft | 453 kts | 211° |
| 2026-04-23 16:56 | 26.41452 | 89.52909 | 27548 ft | 456 kts | 211° |
| 2026-04-23 16:57 | 26.38734 | 89.51060 | 27896 ft | 459 kts | 211° |
| 2026-04-23 16:57 | 26.36001 | 89.49204 | 28242 ft | 462 kts | 211° |
| 2026-04-23 16:57 | 26.33284 | 89.47274 | 28569 ft | 464 kts | 216° |
| 2026-04-23 16:57 | 26.30789 | 89.44992 | 28884 ft | 466 kts | 221° |
| 2026-04-23 16:58 | 26.28327 | 89.42626 | 29217 ft | 468 kts | 221° |
| 2026-04-23 16:58 | 26.25848 | 89.40256 | 29531 ft | 471 kts | 220° |
| 2026-04-23 16:58 | 26.23354 | 89.37884 | 29840 ft | 473 kts | 220° |
| 2026-04-23 16:58 | 26.20842 | 89.35501 | 30120 ft | 474 kts | 220° |
| 2026-04-23 16:59 | 26.18334 | 89.33119 | 30425 ft | 475 kts | 221° |
| 2026-04-23 16:59 | 26.15829 | 89.30735 | 30762 ft | 474 kts | 221° |
| 2026-04-23 16:59 | 26.13330 | 89.28354 | 31224 ft | 470 kts | 221° |
| 2026-04-23 16:59 | 26.10861 | 89.26003 | 31711 ft | 466 kts | 222° |
| 2026-04-23 17:00 | 26.08406 | 89.23657 | 32204 ft | 462 kts | 223° |
| 2026-04-23 17:00 | 26.06017 | 89.21294 | 32693 ft | 458 kts | 224° |
| 2026-04-23 17:00 | 26.03684 | 89.18910 | 33183 ft | 454 kts | 225° |
| 2026-04-23 17:00 | 26.01415 | 89.16547 | 33634 ft | 451 kts | 226° |
| 2026-04-23 17:01 | 25.99114 | 89.14140 | 33770 ft | 448 kts | 226° |
| 2026-04-23 17:01 | 25.96878 | 89.11813 | 33802 ft | 444 kts | 226° |
| 2026-04-23 17:01 | 25.92367 | 89.07171 | 33801 ft | 441 kts | 225° |
| 2026-04-23 17:02 | 25.87850 | 89.02569 | 33803 ft | 441 kts | 225° |
| 2026-04-23 17:02 | 25.83328 | 88.97966 | 33805 ft | 441 kts | 225° |
| 2026-04-23 17:03 | 25.78744 | 88.93440 | 33795 ft | 443 kts | 220° |
| 2026-04-23 17:03 | 25.73219 | 88.90326 | 33784 ft | 452 kts | 200° |
| 2026-04-23 17:04 | 25.67030 | 88.88861 | 33781 ft | 455 kts | 195° |
| 2026-04-23 17:04 | 25.60828 | 88.87487 | 33777 ft | 455 kts | 195° |
| 2026-04-23 17:05 | 25.54655 | 88.86112 | 33778 ft | 455 kts | 195° |
| 2026-04-23 17:05 | 25.48445 | 88.84734 | 33777 ft | 455 kts | 195° |
| 2026-04-23 17:06 | 25.42230 | 88.83362 | 33781 ft | 455 kts | 195° |
| 2026-04-23 17:06 | 25.36023 | 88.81994 | 33782 ft | 455 kts | 195° |
| 2026-04-23 17:07 | 25.29806 | 88.80624 | 33785 ft | 455 kts | 195° |
| 2026-04-23 17:07 | 25.23604 | 88.79245 | 33784 ft | 455 kts | 196° |
| 2026-04-23 17:08 | 25.17401 | 88.77858 | 33782 ft | 454 kts | 196° |
| 2026-04-23 17:08 | 25.11206 | 88.76466 | 33782 ft | 454 kts | 196° |
| 2026-04-23 17:09 | 25.05012 | 88.75089 | 33791 ft | 454 kts | 196° |
| 2026-04-23 17:09 | 24.98858 | 88.73717 | 33789 ft | 453 kts | 197° |
| 2026-04-23 17:10 | 24.92682 | 88.72340 | 33463 ft | 450 kts | 197° |
| 2026-04-23 17:10 | 24.89610 | 88.71657 | 32680 ft | 452 kts | 196° |
| 2026-04-23 17:10 | 24.86516 | 88.70969 | 31883 ft | 454 kts | 195° |
| 2026-04-23 17:11 | 24.83417 | 88.70278 | 31081 ft | 456 kts | 195° |
| 2026-04-23 17:11 | 24.80291 | 88.69580 | 30313 ft | 459 kts | 194° |
| 2026-04-23 17:11 | 24.77167 | 88.68884 | 29951 ft | 460 kts | 194° |
| 2026-04-23 17:11 | 24.74001 | 88.68183 | 29756 ft | 463 kts | 194° |
| 2026-04-23 17:12 | 24.67684 | 88.66785 | 29785 ft | 464 kts | 194° |
| 2026-04-23 17:12 | 24.61395 | 88.65391 | 29498 ft | 461 kts | 194° |
| 2026-04-23 17:13 | 24.58255 | 88.64697 | 28675 ft | 459 kts | 194° |
| 2026-04-23 17:13 | 24.55141 | 88.64009 | 28000 ft | 455 kts | 194° |
| 2026-04-23 17:13 | 24.52062 | 88.63324 | 27356 ft | 450 kts | 193° |
| 2026-04-23 17:13 | 24.48990 | 88.62643 | 26701 ft | 446 kts | 193° |
| 2026-04-23 17:14 | 24.45952 | 88.61975 | 26089 ft | 443 kts | 193° |
| 2026-04-23 17:14 | 24.42930 | 88.61409 | 25495 ft | 440 kts | 187° |
| 2026-04-23 17:14 | 24.39895 | 88.61063 | 24919 ft | 436 kts | 187° |
| 2026-04-23 17:14 | 24.36890 | 88.60716 | 24348 ft | 433 kts | 186° |
| 2026-04-23 17:15 | 24.33905 | 88.60367 | 23790 ft | 429 kts | 186° |
| 2026-04-23 17:15 | 24.30984 | 88.60029 | 23232 ft | 426 kts | 185° |
| 2026-04-23 17:15 | 24.28006 | 88.59720 | 22610 ft | 423 kts | 185° |
| 2026-04-23 17:15 | 24.25123 | 88.59451 | 22037 ft | 419 kts | 184° |
| 2026-04-23 17:16 | 24.22231 | 88.59191 | 21482 ft | 416 kts | 184° |
| 2026-04-23 17:16 | 24.19359 | 88.58935 | 20953 ft | 412 kts | 184° |
| 2026-04-23 17:16 | 24.16505 | 88.58679 | 20445 ft | 409 kts | 184° |
| 2026-04-23 17:16 | 24.13678 | 88.58421 | 19956 ft | 406 kts | 184° |
| 2026-04-23 17:17 | 24.10867 | 88.58159 | 19468 ft | 403 kts | 184° |
| 2026-04-23 17:17 | 24.08083 | 88.57894 | 18990 ft | 400 kts | 184° |
| 2026-04-23 17:17 | 24.06253 | 88.57719 | 18676 ft | 398 kts | 184° |
| 2026-04-23 17:17 | 24.02598 | 88.57370 | 18040 ft | 393 kts | 184° |
| 2026-04-23 17:18 | 23.97174 | 88.56859 | 16956 ft | 388 kts | 184° |
| 2026-04-23 17:18 | 23.94492 | 88.56606 | 16420 ft | 385 kts | 184° |
| 2026-04-23 17:18 | 23.91852 | 88.56356 | 15886 ft | 382 kts | 184° |
| 2026-04-23 17:19 | 23.89185 | 88.56105 | 15351 ft | 380 kts | 185° |
| 2026-04-23 17:19 | 23.86564 | 88.55861 | 14822 ft | 378 kts | 185° |
| 2026-04-23 17:19 | 23.83951 | 88.55618 | 14300 ft | 376 kts | 185° |
| 2026-04-23 17:19 | 23.81347 | 88.55375 | 13789 ft | 374 kts | 185° |
| 2026-04-23 17:20 | 23.78799 | 88.55136 | 13244 ft | 372 kts | 186° |
| 2026-04-23 17:20 | 23.73675 | 88.54651 | 12132 ft | 366 kts | 187° |
| 2026-04-23 17:21 | 23.68631 | 88.54184 | 11137 ft | 358 kts | 187° |
| 2026-04-23 17:21 | 23.66202 | 88.53960 | 11031 ft | 343 kts | 188° |
| 2026-04-23 17:21 | 23.61634 | 88.53536 | 10785 ft | 317 kts | 188° |
| 2026-04-23 17:22 | 23.59466 | 88.53334 | 10636 ft | 308 kts | 188° |
| 2026-04-23 17:22 | 23.55249 | 88.52935 | 10029 ft | 301 kts | 189° |
| 2026-04-23 17:23 | 23.51095 | 88.52544 | 9317 ft | 298 kts | 189° |
| 2026-04-23 17:23 | 23.49027 | 88.52349 | 8940 ft | 296 kts | 189° |
| 2026-04-23 17:23 | 23.44940 | 88.51967 | 8149 ft | 294 kts | 188° |
| 2026-04-23 17:24 | 23.42909 | 88.51779 | 7840 ft | 292 kts | 188° |
| 2026-04-23 17:24 | 23.40880 | 88.51591 | 7595 ft | 293 kts | 187° |
| 2026-04-23 17:24 | 23.36829 | 88.51216 | 7113 ft | 291 kts | 187° |
| 2026-04-23 17:25 | 23.32823 | 88.50844 | 6656 ft | 290 kts | 187° |
| 2026-04-23 17:25 | 23.30817 | 88.50656 | 6429 ft | 289 kts | 187° |
| 2026-04-23 17:26 | 23.26792 | 88.50282 | 5957 ft | 288 kts | 186° |
| 2026-04-23 17:26 | 23.22829 | 88.49916 | 5466 ft | 285 kts | 186° |
| 2026-04-23 17:27 | 23.18887 | 88.49548 | 4993 ft | 282 kts | 186° |
| 2026-04-23 17:27 | 23.16961 | 88.49364 | 4766 ft | 281 kts | 186° |
| 2026-04-23 17:27 | 23.14993 | 88.49176 | 4523 ft | 280 kts | 186° |
| 2026-04-23 17:27 | 23.13080 | 88.48996 | 4336 ft | 279 kts | 186° |
| 2026-04-23 17:28 | 23.11175 | 88.48821 | 4205 ft | 268 kts | 186° |
| 2026-04-23 17:28 | 23.09366 | 88.48655 | 4083 ft | 255 kts | 186° |
| 2026-04-23 17:28 | 23.07634 | 88.48496 | 3967 ft | 243 kts | 185° |
| 2026-04-23 17:28 | 23.05990 | 88.48347 | 3844 ft | 232 kts | 185° |
| 2026-04-23 17:29 | 23.04410 | 88.48203 | 3727 ft | 222 kts | 185° |
| 2026-04-23 17:29 | 23.02909 | 88.48063 | 3634 ft | 212 kts | 185° |
| 2026-04-23 17:29 | 23.00088 | 88.47824 | 3477 ft | 198 kts | 182° |
| 2026-04-23 17:30 | 22.99183 | 88.47792 | 3413 ft | 197 kts | 181° |
| 2026-04-23 17:30 | 22.95984 | 88.47722 | 3205 ft | 196 kts | 181° |
| 2026-04-23 17:30 | 22.94621 | 88.47692 | 3104 ft | 195 kts | 181° |
| 2026-04-23 17:31 | 22.93735 | 88.47677 | 3077 ft | 189 kts | 179° |
| 2026-04-23 17:31 | 22.92403 | 88.47759 | 2988 ft | 177 kts | 178° |
| 2026-04-23 17:31 | 22.91204 | 88.47734 | 2902 ft | 172 kts | 183° |
| 2026-04-23 17:31 | 22.90017 | 88.47635 | 2800 ft | 170 kts | 184° |
| 2026-04-23 17:32 | 22.88860 | 88.47514 | 2703 ft | 163 kts | 185° |
| 2026-04-23 17:32 | 22.87749 | 88.47388 | 2605 ft | 158 kts | 185° |
| 2026-04-23 17:32 | 22.86660 | 88.47262 | 2514 ft | 157 kts | 185° |
| 2026-04-23 17:32 | 22.85580 | 88.47136 | 2411 ft | 156 kts | 185° |
| 2026-04-23 17:33 | 22.84509 | 88.47011 | 2325 ft | 155 kts | 186° |
| 2026-04-23 17:33 | 22.83431 | 88.46884 | 2228 ft | 155 kts | 186° |
| 2026-04-23 17:33 | 22.82365 | 88.46759 | 2139 ft | 153 kts | 186° |
| 2026-04-23 17:33 | 22.81320 | 88.46637 | 2067 ft | 149 kts | 186° |
| 2026-04-23 17:34 | 22.80297 | 88.46517 | 2011 ft | 147 kts | 186° |
| 2026-04-23 17:34 | 22.79630 | 88.46438 | 2007 ft | 145 kts | 186° |
| 2026-04-23 17:34 | 22.77361 | 88.46172 | 1915 ft | 133 kts | 186° |
| 2026-04-23 17:35 | 22.76759 | 88.46102 | 1816 ft | 130 kts | 186° |
| 2026-04-23 17:35 | 22.74993 | 88.45894 | 1529 ft | 125 kts | 187° |
| 2026-04-23 17:35 | 22.73847 | 88.45760 | 1319 ft | 125 kts | 187° |
| 2026-04-23 17:36 | 22.72980 | 88.45658 | 1159 ft | 125 kts | 187° |
| 2026-04-23 17:36 | 22.72119 | 88.45558 | 1000 ft | 124 kts | 186° |
| 2026-04-23 17:36 | 22.71258 | 88.45456 | 848 ft | 124 kts | 187° |
| 2026-04-23 17:36 | 22.70396 | 88.45356 | 703 ft | 125 kts | 186° |
| 2026-04-23 17:37 | 22.69811 | 88.45287 | 610 ft | 125 kts | 185° |
| 2026-04-23 17:37 | 22.68956 | 88.45186 | 414 ft | 124 kts | 185° |
| 2026-04-23 17:37 | 22.67241 | 88.44988 | 83 ft | 122 kts | 185° |
| 2026-04-23 17:38 | 22.66451 | 88.44897 | 26 ft | 101 kts | 185° |
| 2026-04-23 17:38 | 22.65919 | 88.44836 | 29 ft | 51 kts | 186° |
| 2026-04-23 17:38 | 22.65664 | 88.44806 | 30 ft | 9 kts | 187° |
| 2026-04-23 17:38 | 22.65642 | 88.44749 | 31 ft | 10 kts | 276° |
| 2026-04-23 17:39 | 22.65648 | 88.44700 | 31 ft | 7 kts | 278° |
| 2026-04-23 17:39 | 22.65656 | 88.44643 | 30 ft | 8 kts | 278° |
| 2026-04-23 17:39 | 22.65652 | 88.44575 | 30 ft | 10 kts | 256° |
| 2026-04-23 17:39 | 22.65629 | 88.44516 | 29 ft | 7 kts | 246° |
| 2026-04-23 17:40 | 22.65591 | 88.44477 | 29 ft | 8 kts | 194° |
| 2026-04-23 17:40 | 22.65529 | 88.44469 | 29 ft | 10 kts | 186° |
| 2026-04-23 17:40 | 22.65457 | 88.44461 | 29 ft | 11 kts | 186° |
| 2026-04-23 17:40 | 22.65372 | 88.44451 | 29 ft | 13 kts | 186° |
| 2026-04-23 17:41 | 22.65276 | 88.44439 | 28 ft | 15 kts | 186° |
| 2026-04-23 17:41 | 22.65115 | 88.44397 | 28 ft | 11 kts | 235° |
| 2026-04-23 17:41 | 22.65084 | 88.44327 | 28 ft | 10 kts | 245° |
| 2026-04-23 17:42 | 22.65029 | 88.44247 | 29 ft | 5 kts | 233° |
| 2026-04-23 17:42 | 22.65024 | 88.44206 | 29 ft | 4 kts | 276° |
| 2026-04-23 17:42 | 22.65027 | 88.44175 | 29 ft | 4 kts | 276° |
| 2026-04-23 17:43 | 22.65028 | 88.44167 | 29 ft | 0 kts | 276° |